This is the latest recevied weather packets stored in our database for station/object YB3RDW-13. If no packets are shown the sender has not sent any weather packets the latest 1 day(s).
| Time | Temp. | Humidity | Pressure | Rain* | Wind** | Luminosity | Snow |
|---|---|---|---|---|---|---|---|
| 1778040718 | 32.78° C | 61% | 1012 hPa | 0 mm | 4.02 m/s, 314° | 698 W/m² | - |
| 1778040417 | 32.78° C | 60% | 1012 hPa | 0 mm | 3.13 m/s, 241° | 710 W/m² | - |
| 1778040118 | 32.78° C | 59% | 1012 hPa | 0 mm | 1.34 m/s, 201° | 715 W/m² | - |
| 1778039817 | 32.78° C | 60% | 1012 hPa | 0 mm | 3.58 m/s, 280° | 665 W/m² | - |
| 1778039517 | 32.22° C | 61% | 1012 hPa | 0 mm | 3.58 m/s, 307° | 617 W/m² | - |
| 1778039217 | 32.22° C | 61% | 1012 hPa | 0 mm | 3.13 m/s, 227° | 597 W/m² | - |
| 1778038918 | 32.22° C | 61% | 1012 hPa | 0 mm | 1.79 m/s, 253° | 530 W/m² | - |
| 1778038617 | 32.22° C | 64% | 1012 hPa | 0 mm | 3.13 m/s, 9° | 534 W/m² | - |
| 1778038317 | 32.22° C | 63% | 1012 hPa | 0 mm | 2.24 m/s, 349° | 427 W/m² | - |
| 1778038017 | 32.22° C | 63% | 1012 hPa | 0 mm | 0.89 m/s, 311° | 423 W/m² | - |
| 1778037717 | 32.78° C | 63% | 1012 hPa | 0 mm | 3.58 m/s, 342° | 368 W/m² | - |
| 1778037417 | 32.22° C | 63% | 1012 hPa | 0 mm | 2.68 m/s, 311° | 425 W/m² | - |
| 1778037118 | 32.78° C | 62% | 1012 hPa | 0 mm | 3.13 m/s, 332° | 413 W/m² | - |
| 1778036819 | 32.78° C | 63% | 1012 hPa | 0 mm | 3.13 m/s, 288° | 508 W/m² | - |
| 1778036517 | 32.22° C | 63% | 1012 hPa | 0 mm | 3.13 m/s, 347° | 642 W/m² | - |
| 1778036217 | 32.22° C | 66% | 1013 hPa | 0 mm | 3.58 m/s, 310° | 601 W/m² | - |
| 1778035917 | 31.67° C | 67% | 1013 hPa | 0 mm | 2.24 m/s, 277° | 267 W/m² | - |
| 1778035617 | 31.67° C | 70% | 1013 hPa | 0 mm | 2.68 m/s, 2° | 631 W/m² | - |
| 1778035317 | 32.22° C | 68% | 1013 hPa | 0 mm | 3.13 m/s, 270° | 470 W/m² | - |
| 1778035017 | 31.67° C | 69% | 1013 hPa | 0 mm | 1.34 m/s, 343° | 613 W/m² | - |
| 1778034717 | 32.22° C | 69% | 1013 hPa | 0 mm | 1.79 m/s, 165° | 579 W/m² | - |
| 1778034417 | 32.22° C | 68% | 1013 hPa | 0 mm | 2.68 m/s, 264° | 579 W/m² | - |
| 1778034117 | 31.67° C | 69% | 1013 hPa | 0 mm | 1.79 m/s, 228° | 490 W/m² | - |
| 1778033817 | 31.11° C | 71% | 1013 hPa | 0 mm | 0.45 m/s, 177° | 500 W/m² | - |
| 1778033517 | 31.11° C | 72% | 1013 hPa | 0 mm | 2.24 m/s, 10° | 501 W/m² | - |
* Rain latest hour (hover to see other rain measurements)
** Current wind speed in m/s (hover to see current wind gust speed)